createdAt,value
2023-04-12T00:57:20.200Z,43.54
2023-04-12T00:59:49.597Z,43.73
2023-04-12T02:58:44.809Z,43.45
2023-04-12T05:01:37.546Z,43.16
2023-04-12T05:04:08.824Z,43.05
2023-04-12T05:06:39.660Z,43.09
2023-04-12T05:09:10.603Z,43.10
2023-04-12T05:11:47.887Z,43.06
2023-04-12T05:14:16.590Z,43.21
2023-04-12T05:16:44.650Z,43.09
2023-04-12T05:19:14.193Z,43.14
2023-04-12T05:21:43.453Z,43.00
2023-04-12T05:24:11.679Z,43.07
2023-04-12T05:26:41.335Z,43.03
2023-04-12T05:29:14.455Z,43.06
2023-04-12T05:31:43.775Z,42.95
2023-04-12T05:34:20.750Z,43.18
2023-04-12T05:36:54.632Z,43.01
2023-04-12T05:39:23.309Z,43.08
2023-04-12T05:41:53.589Z,43.16
2023-04-12T05:44:23.476Z,43.04
2023-04-12T05:47:00.638Z,43.04
2023-04-12T05:49:32.943Z,42.93
2023-04-12T05:52:04.726Z,42.85
2023-04-12T05:54:34.111Z,43.01
2023-04-12T05:57:02.521Z,43.05
2023-04-12T05:59:32.070Z,43.15
2023-04-12T06:02:06.389Z,43.01
2023-04-12T06:07:13.179Z,42.93
2023-04-12T06:09:44.616Z,42.98
2023-04-12T06:12:13.813Z,42.88
2023-04-12T06:14:45.154Z,43.07
2023-04-12T06:17:13.739Z,42.95
2023-04-12T06:19:43.291Z,42.98
2023-04-12T06:22:11.796Z,42.95
2023-04-12T06:27:25.898Z,42.98
2023-04-12T06:29:57.249Z,42.99
2023-04-12T06:32:45.943Z,42.99
2023-04-12T06:35:20.352Z,43.01
2023-04-12T06:37:49.303Z,42.97
2023-04-12T06:44:26.901Z,42.94
2023-04-12T06:50:26.835Z,42.79
2023-04-12T06:53:56.513Z,42.78
2023-04-12T07:00:07.965Z,42.83
2023-04-12T07:06:24.286Z,42.70
2023-04-12T07:12:51.925Z,42.83
2023-04-12T07:15:29.075Z,42.88
2023-04-12T07:17:57.738Z,43.00
2023-04-12T07:20:26.254Z,42.95
2023-04-12T07:22:55.912Z,42.80
2023-04-12T07:25:35.816Z,42.65
2023-04-12T07:28:09.052Z,42.71
2023-04-12T07:30:41.249Z,42.42
2023-04-12T07:33:23.490Z,42.39
2023-04-12T07:35:53.060Z,42.51
2023-04-12T07:38:28.801Z,42.41
2023-04-12T07:40:57.177Z,42.68
2023-04-12T07:43:25.855Z,42.66
2023-04-12T07:45:55.797Z,42.40
2023-04-12T07:48:26.152Z,42.44
2023-04-12T07:50:54.334Z,42.32
2023-04-12T07:53:26.822Z,42.19
2023-04-12T07:55:55.443Z,42.11
2023-04-12T07:58:25.678Z,42.11
2023-04-12T08:01:06.121Z,42.07
2023-04-12T08:03:38.091Z,42.08
2023-04-12T08:06:10.400Z,42.43
2023-04-12T08:08:40.942Z,42.61
2023-04-12T08:11:28.003Z,42.50
2023-04-12T08:13:58.402Z,42.70
2023-04-12T08:16:32.943Z,42.82
2023-04-12T08:19:03.382Z,42.89
2023-04-12T08:21:31.664Z,42.85
2023-04-12T08:24:01.556Z,42.79
2023-04-12T08:26:33.947Z,42.83
2023-04-12T09:45:13.962Z,42.18
2023-04-12T09:47:47.160Z,42.18
2023-04-12T09:50:23.030Z,42.27
2023-04-12T09:52:54.479Z,41.94
2023-04-12T09:55:24.338Z,41.61
2023-04-12T09:57:57.899Z,42.09
2023-04-12T10:00:30.837Z,41.59
2023-04-12T10:03:05.112Z,41.99
2023-04-12T10:05:34.020Z,41.99
2023-04-12T10:08:12.443Z,42.01
2023-04-12T10:10:52.029Z,42.25
2023-04-12T10:13:31.220Z,41.94
2023-04-12T10:16:08.188Z,41.96
2023-04-12T10:18:45.569Z,42.06
2023-04-12T10:21:29.767Z,41.73
2023-04-12T10:24:07.931Z,42.06
2023-04-12T10:26:50.423Z,42.05
2023-04-12T10:29:42.560Z,41.13
2023-04-12T10:32:41.628Z,41.46
2023-04-12T10:35:17.084Z,41.91
2023-04-12T10:38:04.207Z,42.05
2023-04-12T10:40:34.374Z,42.12
2023-04-12T10:43:30.901Z,41.54
2023-04-12T10:51:01.474Z,40.70
2023-04-12T10:54:32.296Z,41.34
2023-04-12T10:57:29.244Z,40.56
2023-04-12T10:59:59.726Z,41.01
2023-04-12T11:02:34.671Z,40.45
2023-04-12T11:05:10.397Z,41.04
2023-04-12T11:08:03.511Z,40.48
2023-04-12T11:10:43.481Z,40.99
2023-04-12T11:13:20.465Z,41.35
2023-04-12T11:15:52.692Z,40.90
2023-04-12T11:18:23.849Z,41.46
2023-04-12T11:20:52.571Z,41.31
2023-04-12T11:23:22.237Z,40.55
2023-04-12T11:25:54.307Z,40.68
2023-04-12T11:28:30.460Z,40.98
2023-04-12T11:31:04.941Z,40.39
2023-04-12T11:33:48.979Z,39.92
2023-04-12T11:36:21.934Z,40.50
2023-04-12T11:39:14.589Z,40.78
2023-04-12T11:41:53.734Z,40.51
2023-04-12T11:44:23.115Z,40.38
2023-04-12T11:46:53.636Z,40.11
2023-04-12T11:49:52.127Z,40.16
2023-04-12T11:52:34.244Z,39.71
2023-04-12T11:55:28.353Z,40.96
2023-04-12T11:58:04.144Z,40.63
2023-04-12T12:00:37.364Z,40.62
2023-04-12T12:03:08.749Z,40.79
2023-04-12T12:05:42.078Z,41.07
2023-04-12T12:08:19.447Z,41.12
2023-04-12T12:11:07.398Z,40.30
2023-04-12T12:13:54.487Z,40.40
2023-04-12T12:16:31.280Z,39.79
2023-04-12T12:19:08.079Z,40.02
2023-04-12T12:22:31.924Z,39.55
2023-04-12T12:29:28.733Z,40.19
2023-04-12T12:33:09.926Z,40.19
2023-04-12T12:42:01.693Z,40.14
2023-04-12T12:44:52.672Z,39.41
2023-04-12T12:48:10.283Z,39.98
2023-04-12T12:50:51.508Z,39.87
2023-04-12T12:53:45.829Z,40.40
2023-04-12T12:56:40.753Z,40.65
2023-04-12T12:59:26.189Z,40.77
2023-04-12T13:02:08.225Z,40.53
2023-04-12T13:04:39.896Z,40.55
2023-04-12T13:07:26.520Z,40.11
2023-04-12T13:10:37.754Z,40.56
2023-04-12T13:17:00.437Z,40.34
2023-04-12T13:27:04.282Z,40.06
2023-04-12T13:37:27.060Z,40.47
2023-04-12T13:40:49.474Z,40.63
2023-04-12T13:43:47.707Z,40.64
2023-04-12T13:46:19.067Z,40.90
2023-04-12T13:49:09.236Z,41.12
2023-04-12T13:51:45.912Z,41.03
2023-04-12T13:54:25.894Z,40.88
2023-04-12T14:00:42.969Z,41.07
2023-04-12T14:03:32.028Z,41.36
2023-04-12T14:06:06.768Z,40.80
2023-04-12T14:08:40.987Z,40.73
2023-04-12T14:11:14.656Z,39.87
2023-04-12T14:13:54.177Z,40.84
2023-04-12T14:16:33.594Z,41.21
2023-04-12T14:19:17.221Z,41.00
2023-04-12T14:21:58.425Z,40.94
2023-04-12T14:24:30.260Z,41.01
2023-04-12T14:27:02.642Z,41.11
2023-04-12T14:29:33.678Z,41.16
2023-04-12T14:32:12.570Z,41.36
2023-04-12T14:34:45.029Z,41.27
2023-04-12T14:37:14.739Z,41.30
2023-04-12T14:39:45.106Z,41.25
2023-04-12T14:42:17.126Z,41.38
2023-04-12T14:44:45.340Z,41.47
2023-04-12T14:47:13.653Z,41.46
2023-04-12T14:49:41.973Z,41.46
2023-04-12T14:52:10.363Z,41.51
2023-04-12T14:54:38.882Z,41.36
2023-04-12T14:57:07.399Z,41.58
2023-04-12T14:59:37.474Z,41.62
2023-04-12T15:02:12.160Z,41.70
2023-04-12T15:04:52.262Z,41.79
2023-04-12T15:09:18.474Z,41.72
2023-04-12T15:10:49.111Z,41.85
2023-04-12T15:13:35.716Z,41.79
2023-04-12T15:16:17.070Z,41.68
2023-04-12T15:19:18.400Z,41.79
2023-04-12T15:22:15.521Z,41.96
2023-04-12T15:24:58.423Z,41.94
2023-04-12T15:27:34.781Z,41.97
2023-04-12T15:30:16.069Z,42.01
2023-04-12T15:33:00.354Z,42.01
2023-04-12T15:35:31.896Z,41.93
2023-04-12T15:38:00.159Z,42.12
2023-04-12T15:40:28.449Z,42.24
2023-04-12T15:42:56.673Z,42.19
2023-04-12T15:45:27.405Z,42.28
2023-04-12T15:47:59.365Z,42.17
2023-04-12T15:50:31.903Z,42.24
2023-04-12T15:53:01.201Z,42.29
2023-04-12T15:55:41.235Z,42.23
2023-04-12T15:58:12.149Z,42.27
2023-04-12T16:00:40.494Z,42.10
2023-04-12T16:03:09.271Z,42.08
2023-04-12T16:05:39.143Z,42.21
2023-04-12T16:08:07.731Z,42.12
2023-04-12T16:10:38.787Z,42.33
2023-04-12T16:13:06.865Z,42.37
2023-04-12T16:15:35.279Z,42.31
2023-04-12T16:18:03.776Z,42.49
2023-04-12T16:20:32.031Z,42.58
2023-04-12T16:23:03.855Z,42.57
2023-04-12T16:25:32.317Z,42.46
2023-04-12T16:28:02.579Z,42.61
2023-04-12T16:30:32.806Z,42.76
2023-04-12T16:33:01.019Z,42.69
2023-04-12T16:35:29.267Z,42.71
2023-04-12T16:37:57.796Z,42.50
2023-04-12T16:40:29.543Z,42.58
2023-04-12T16:43:00.914Z,42.67
2023-04-12T16:45:29.277Z,42.56
2023-04-12T16:47:57.476Z,42.49
2023-04-12T16:50:27.304Z,42.59
2023-04-12T16:52:55.447Z,42.49
2023-04-12T16:55:24.446Z,42.44
2023-04-12T16:57:55.005Z,42.65
2023-04-12T17:00:24.093Z,42.36
2023-04-12T17:02:53.275Z,42.71
2023-04-12T17:05:21.867Z,42.42
2023-04-12T17:07:54.411Z,42.46
2023-04-12T17:10:25.266Z,42.58
2023-04-12T17:12:58.652Z,42.65
2023-04-12T17:15:28.340Z,42.59
2023-04-12T17:18:09.944Z,42.54
2023-04-12T17:20:38.514Z,42.57
2023-04-12T17:23:07.952Z,42.51
2023-04-12T17:25:38.314Z,42.60
2023-04-12T17:28:10.603Z,42.61
2023-04-12T17:30:39.321Z,42.71
2023-04-12T17:33:09.017Z,42.68
2023-04-12T17:35:40.888Z,42.61
2023-04-12T17:38:09.494Z,42.77
2023-04-12T17:40:39.815Z,42.61
2023-04-12T17:43:09.769Z,42.86
2023-04-12T17:45:40.709Z,42.67
2023-04-12T17:48:14.992Z,42.72
2023-04-12T17:50:47.705Z,42.80
2023-04-12T17:53:17.394Z,42.80
2023-04-12T17:55:50.523Z,42.73
2023-04-12T17:58:24.585Z,42.95
2023-04-12T18:00:56.655Z,43.05
2023-04-12T18:03:27.990Z,42.99
2023-04-12T18:09:38.928Z,42.90
2023-04-12T18:12:13.382Z,42.88
2023-04-12T18:15:02.471Z,42.91
2023-04-12T18:17:47.505Z,43.09
2023-04-12T18:24:13.796Z,43.11
2023-04-12T19:58:14.531Z,43.49
2023-04-12T20:00:48.932Z,43.60
2023-04-12T20:03:19.949Z,43.55
2023-04-12T20:05:50.144Z,43.49
2023-04-12T20:08:26.081Z,43.44
2023-04-12T20:11:00.737Z,43.48
2023-04-12T20:13:39.548Z,43.44
2023-04-12T20:16:11.469Z,43.50
2023-04-12T20:18:43.337Z,43.71
2023-04-12T20:21:13.565Z,43.65
2023-04-12T20:24:13.467Z,43.58
2023-04-12T20:26:53.042Z,43.75
2023-04-12T20:29:33.946Z,43.72
2023-04-12T20:32:07.317Z,43.69
2023-04-12T20:34:40.911Z,43.73
2023-04-12T20:37:10.211Z,43.77
2023-04-12T20:39:39.930Z,43.65
2023-04-12T20:42:21.466Z,43.77
2023-04-12T20:45:03.516Z,43.70
2023-04-12T20:47:43.932Z,43.72
2023-04-12T20:50:13.159Z,43.79
2023-04-12T20:52:43.648Z,43.83
2023-04-12T20:55:17.770Z,43.70
2023-04-12T20:57:57.019Z,43.64
2023-04-12T21:00:44.354Z,43.81
2023-04-12T21:03:18.074Z,43.89
2023-04-12T21:05:52.809Z,43.76
2023-04-12T21:12:26.005Z,43.90
2023-04-12T21:15:15.479Z,43.96
2023-04-12T21:17:46.578Z,43.98
2023-04-12T21:20:18.807Z,43.76
2023-04-12T21:22:53.831Z,43.96
2023-04-12T21:25:22.069Z,43.88
2023-04-12T21:27:53.928Z,43.96
2023-04-12T21:30:27.384Z,43.97
2023-04-12T21:33:05.474Z,43.93
2023-04-12T21:35:34.622Z,44.00
2023-04-12T21:38:10.696Z,43.99
2023-04-12T21:40:42.350Z,44.00
2023-04-12T21:43:12.509Z,44.12
2023-04-12T21:45:40.963Z,43.87
2023-04-12T21:48:23.868Z,44.03
2023-04-12T21:51:03.260Z,44.00
2023-04-12T21:53:33.592Z,44.15
2023-04-12T21:56:02.612Z,44.29
2023-04-12T21:58:41.209Z,44.13
2023-04-12T22:01:12.287Z,44.07
2023-04-12T22:03:45.594Z,44.00
2023-04-12T22:06:17.800Z,44.09
2023-04-12T22:08:52.684Z,44.27
2023-04-12T22:11:23.619Z,44.12
2023-04-12T22:13:55.790Z,44.01
2023-04-12T22:16:25.183Z,44.12
2023-04-12T22:18:59.961Z,44.18
2023-04-12T22:21:28.703Z,44.19
2023-04-12T22:23:59.765Z,44.31
2023-04-12T22:26:33.126Z,44.36
2023-04-12T22:29:04.716Z,44.47
2023-04-12T22:31:35.992Z,44.36
2023-04-12T22:37:21.264Z,44.30
2023-04-12T22:40:02.049Z,44.39
2023-04-12T22:42:51.577Z,44.68
2023-04-12T22:45:22.728Z,44.73
2023-04-12T22:51:55.871Z,44.95
2023-04-12T22:54:32.042Z,44.94
2023-04-12T22:57:11.324Z,44.85
